Time;durP1;ratioP1;P1;durP2;ratioP2;P2;SDS_P1;SDS_P2;PMS_P1;PMS_P2;Temp;Humidity;BMP_temperature;BMP_pressure;BME280_temperature;BME280_humidity;BME280_pressure;Samples;Min_cycle;Max_cycle;Signal;HPM_P1;HPM_P2
2022/11/08 00:02:25;;;;;;;35.42;9.50;;;;;;;13.76;100.00;97933.09;5016555;28;20040;-63
2022/11/08 00:04:51;;;;;;;39.13;10.18;;;;;;;14.10;100.00;97925.94;5016107;28;20092;-64
2022/11/08 00:15:32;;;;;;;31.42;7.57;;;;;;;15.95;100.00;97919.25;5021285;28;20247;-62
2022/11/08 00:17:57;;;;;;;42.60;8.65;;;;;;;16.07;100.00;97911.50;5021408;28;20021;-62
2022/11/08 00:20:22;;;;;;;30.48;8.13;;;;;;;15.50;100.00;97913.28;5020106;28;20099;-65
2022/11/08 00:22:48;;;;;;;29.48;7.30;;;;;;;16.10;100.00;97909.53;5020177;28;20071;-65
2022/11/08 00:25:13;;;;;;;30.85;8.18;;;;;;;15.61;100.00;97912.63;5020926;28;20574;-63
2022/11/08 00:27:38;;;;;;;29.55;7.70;;;;;;;15.57;100.00;97911.97;5020993;28;20025;-63
2022/11/08 00:30:04;;;;;;;39.17;9.63;;;;;;;15.84;100.00;97912.97;5019673;28;20033;-62
2022/11/08 00:32:30;;;;;;;26.48;7.60;;;;;;;15.13;100.00;97905.06;5020595;28;20056;-63
2022/11/08 00:34:55;;;;;;;32.78;8.40;;;;;;;15.26;100.00;97909.56;5020495;28;20030;-62
2022/11/08 00:37:21;;;;;;;35.28;7.85;;;;;;;15.39;100.00;97910.50;5020409;28;20045;-62
2022/11/08 00:39:47;;;;;;;42.97;9.27;;;;;;;15.31;100.00;97910.09;5020248;28;20471;-62
2022/11/08 00:42:13;;;;;;;45.00;9.52;;;;;;;14.91;100.00;97916.00;5019348;28;20044;-62
2022/11/08 00:44:39;;;;;;;34.42;8.23;;;;;;;14.91;100.00;97912.56;5021081;28;20037;-61
2022/11/08 00:47:04;;;;;;;37.60;9.65;;;;;;;14.26;100.00;97913.66;5020145;28;20108;-62
2022/11/08 00:49:30;;;;;;;32.92;8.95;;;;;;;14.53;100.00;97915.63;5020218;28;20621;-63
2022/11/08 00:51:55;;;;;;;33.15;9.60;;;;;;;13.48;100.00;97913.63;5019217;28;20033;-62
2022/11/08 00:54:21;;;;;;;31.90;9.40;;;;;;;12.82;100.00;97904.81;5019206;28;20033;-63
2022/11/08 00:56:47;;;;;;;33.53;9.25;;;;;;;13.32;100.00;97913.59;5020034;28;20645;-62
2022/11/08 00:59:15;;;;;;;32.42;7.72;;;;;;;13.61;100.00;97917.25;5020316;28;20037;-62
2022/11/08 01:01:41;;;;;;;35.45;8.10;;;;;;;14.00;100.00;97909.88;5018843;28;20034;-62
2022/11/08 01:04:08;;;;;;;28.38;7.28;;;;;;;14.64;100.00;97913.25;5019752;28;20039;-62
2022/11/08 01:06:34;;;;;;;34.50;7.55;;;;;;;14.15;100.00;97913.41;5019389;28;20755;-63
2022/11/08 01:09:00;;;;;;;30.58;7.55;;;;;;;14.82;100.00;97906.91;5020159;28;20029;-64
2022/11/08 01:11:26;;;;;;;32.35;7.75;;;;;;;14.87;100.00;97908.41;5019145;28;20036;-62
2022/11/08 01:13:56;;;;;;;38.45;8.38;;;;;;;14.99;100.00;97902.41;5020066;28;20218;-62
2022/11/08 01:16:23;;;;;;;27.63;7.43;;;;;;;15.13;100.00;97905.06;5019598;28;20565;-65
2022/11/08 01:18:50;;;;;;;40.13;8.85;;;;;;;13.52;100.00;97903.81;5019819;28;20936;-62
2022/11/08 01:21:17;;;;;;;38.20;8.40;;;;;;;13.86;100.00;97902.81;5019212;28;20064;-63
2022/11/08 01:23:44;;;;;;;38.42;8.45;;;;;;;14.08;100.00;97900.66;5019343;28;20565;-62
2022/11/08 01:26:15;;;;;;;28.65;7.85;;;;;;;14.38;100.00;97906.88;5019458;28;20034;-61
2022/11/08 01:28:41;;;;;;;32.10;8.07;;;;;;;13.90;100.00;97896.47;5019788;28;20076;-62
2022/11/08 01:31:12;;;;;;;34.50;7.75;;;;;;;14.75;100.00;97900.31;5018324;28;20176;-62
2022/11/08 01:33:38;;;;;;;28.90;7.40;;;;;;;14.62;100.00;97899.38;5019404;28;20052;-62
2022/11/08 01:36:08;;;;;;;32.17;7.65;;;;;;;14.01;100.00;97896.69;5018833;28;20041;-63
2022/11/08 01:38:34;;;;;;;30.13;7.57;;;;;;;13.22;100.00;97900.13;5019870;28;20033;-63
2022/11/08 01:40:59;;;;;;;40.92;8.23;;;;;;;14.46;100.00;97900.25;5018168;28;20683;-62
2022/11/08 01:43:31;;;;;;;28.20;7.28;;;;;;;14.02;100.00;97905.41;5019297;28;20068;-62
2022/11/08 01:46:08;;;;;;;34.47;7.60;;;;;;;14.74;100.00;97897.78;5018574;28;20764;-63
2022/11/08 01:48:35;;;;;;;31.05;7.63;;;;;;;14.18;100.00;97905.38;5019367;28;20604;-65
2022/11/08 01:51:01;;;;;;;43.17;8.68;;;;;;;13.51;100.00;97900.38;5017998;28;20091;-63
2022/11/08 01:53:28;;;;;;;33.60;7.35;;;;;;;14.84;100.00;97894.53;5018354;28;20025;-62
2022/11/08 01:55:54;;;;;;;32.67;7.40;;;;;;;13.74;100.00;97896.47;5018691;28;20037;-64
2022/11/08 01:58:24;;;;;;;30.80;6.90;;;;;;;13.97;100.00;97899.56;5017520;28;20029;-62
2022/11/08 02:00:51;;;;;;;31.67;7.28;;;;;;;14.44;100.00;97902.09;5018010;28;20041;-62
2022/11/08 02:03:18;;;;;;;31.85;8.18;;;;;;;12.86;100.00;97892.41;5018662;28;20041;-62
2022/11/08 02:05:44;;;;;;;31.40;7.40;;;;;;;12.40;100.00;97879.06;5018390;28;20037;-64
2022/11/08 02:08:18;;;;;;;42.45;7.93;;;;;;;13.79;100.00;97890.97;5018664;28;20513;-64
2022/11/08 02:10:49;;;;;;;29.30;7.20;;;;;;;14.11;100.00;97883.06;5017741;28;20040;-62
2022/11/08 02:13:18;;;;;;;38.05;7.88;;;;;;;14.21;100.00;97873.75;5018540;28;20026;-62
2022/11/08 02:15:43;;;;;;;28.98;7.10;;;;;;;14.16;100.00;97881.03;5018625;28;20033;-62
2022/11/08 02:18:10;;;;;;;32.35;7.18;;;;;;;12.65;100.00;97870.84;5018883;28;20051;-62
2022/11/08 02:20:35;;;;;;;29.55;7.18;;;;;;;13.32;100.00;97876.09;5017714;28;20029;-62
2022/11/08 02:23:03;;;;;;;36.20;7.47;;;;;;;13.52;100.00;97869.75;5018815;28;20033;-63
2022/11/08 02:25:29;;;;;;;37.65;8.07;;;;;;;13.87;100.00;97859.91;5018263;28;20540;-63
2022/11/08 02:27:54;;;;;;;29.50;6.97;;;;;;;14.12;100.00;97856.75;5018275;28;20560;-61
2022/11/08 02:30:20;;;;;;;32.67;7.63;;;;;;;14.01;100.00;97857.38;5017365;28;20057;-65
2022/11/08 02:32:46;;;;;;;35.05;8.30;;;;;;;12.80;100.00;97854.31;5018413;28;20104;-64
2022/11/08 02:35:15;;;;;;;36.50;8.00;;;;;;;12.74;100.00;97852.03;5017908;28;20031;-63
2022/11/08 02:37:40;;;;;;;36.70;8.15;;;;;;;12.64;100.00;97838.56;5018251;28;20032;-63
2022/11/08 02:40:06;;;;;;;35.92;7.57;;;;;;;13.20;100.00;97833.06;5017560;28;20599;-62
2022/11/08 02:42:32;;;;;;;38.83;7.88;;;;;;;14.19;100.00;97833.63;5018170;28;20029;-62
2022/11/08 02:44:57;;;;;;;31.33;6.78;;;;;;;14.55;100.00;97829.75;5018744;28;20036;-63
2022/11/08 02:47:23;;;;;;;30.38;7.65;;;;;;;13.98;100.00;97836.56;5018280;28;20053;-64
2022/11/08 02:49:49;;;;;;;51.75;9.80;;;;;;;12.61;100.00;97838.75;5017450;28;20152;-61
2022/11/08 02:52:15;;;;;;;38.92;8.48;;;;;;;11.35;100.00;97827.44;5017467;28;20029;-63
2022/11/08 02:54:40;;;;;;;35.03;7.32;;;;;;;12.66;100.00;97838.50;5018529;28;20031;-61
2022/11/08 02:57:05;;;;;;;29.90;7.35;;;;;;;12.78;100.00;97830.00;5017691;28;20431;-62
2022/11/08 02:59:31;;;;;;;27.15;6.82;;;;;;;13.31;100.00;97822.84;5017859;28;20044;-62
2022/11/08 03:01:56;;;;;;;34.10;6.97;;;;;;;14.38;100.00;97822.91;5016216;28;20102;-62
2022/11/08 03:04:21;;;;;;;29.98;7.45;;;;;;;13.11;100.00;97832.59;5017802;28;20145;-62
2022/11/08 03:06:47;;;;;;;39.50;8.13;;;;;;;12.75;100.00;97827.53;5017951;28;20136;-64
2022/11/08 03:09:12;;;;;;;30.90;7.97;;;;;;;12.16;100.00;97816.63;5018470;28;20120;-63
2022/11/08 03:11:38;;;;;;;33.67;7.45;;;;;;;12.46;100.00;97823.81;5017319;28;20076;-62
2022/11/08 03:14:03;;;;;;;38.78;7.22;;;;;;;13.67;100.00;97827.84;5017638;28;20029;-62
2022/11/08 03:16:29;;;;;;;29.30;6.70;;;;;;;13.47;100.00;97834.19;5018204;28;20052;-62
2022/11/08 03:18:54;;;;;;;33.65;7.60;;;;;;;13.15;100.00;97841.13;5018281;28;20041;-66
2022/11/08 03:21:19;;;;;;;28.23;6.40;;;;;;;14.06;100.00;97839.59;5016988;28;20572;-62
2022/11/08 03:23:45;;;;;;;32.65;7.20;;;;;;;12.87;100.00;97837.38;5014625;28;20420;-61
2022/11/08 03:26:10;;;;;;;36.10;7.18;;;;;;;12.52;100.00;97826.97;5016227;28;20188;-61
2022/11/08 03:28:35;;;;;;;33.17;7.15;;;;;;;13.46;100.00;97839.50;5018321;28;20395;-63
2022/11/08 03:31:01;;;;;;;32.45;7.22;;;;;;;13.26;100.00;97836.16;5015943;28;20099;-62
2022/11/08 03:33:26;;;;;;;30.15;6.78;;;;;;;13.54;100.00;97842.53;5017772;28;20260;-65
2022/11/08 03:35:52;;;;;;;28.92;6.53;;;;;;;12.80;100.00;97833.41;5017754;28;20042;-64
2022/11/08 03:38:17;;;;;;;40.03;7.57;;;;;;;11.63;100.00;97831.38;5018087;28;20122;-61
2022/11/08 03:40:44;;;;;;;25.63;6.43;;;;;;;11.99;100.00;97830.53;5020190;28;20033;-61
2022/11/08 03:43:10;;;;;;;34.97;7.40;;;;;;;11.62;100.00;97823.63;5021097;28;20036;-64
2022/11/08 03:45:36;;;;;;;32.70;6.82;;;;;;;11.77;100.00;97823.72;5021418;28;20034;-61
2022/11/08 03:48:01;;;;;;;26.08;6.30;;;;;;;11.29;100.00;97821.69;5021931;28;20112;-63
2022/11/08 03:50:26;;;;;;;33.78;7.15;;;;;;;12.22;100.00;97825.91;5020698;28;20483;-61
2022/11/08 03:52:54;;;;;;;30.33;7.03;;;;;;;12.21;100.00;97832.09;5021148;28;20136;-62
2022/11/08 03:55:22;;;;;;;30.80;6.55;;;;;;;12.62;100.00;97822.09;5019867;28;20136;-62
2022/11/08 03:57:48;;;;;;;31.35;7.03;;;;;;;12.90;100.00;97821.53;5021756;28;20021;-62
2022/11/08 04:00:16;;;;;;;29.95;6.15;;;;;;;12.88;100.00;97828.63;5020677;28;20896;-63
2022/11/08 04:02:42;;;;;;;29.45;6.55;;;;;;;11.81;100.00;97828.81;5021003;28;20246;-62
2022/11/08 04:05:10;;;;;;;28.00;5.95;;;;;;;12.73;100.00;97829.41;5021297;28;20051;-64
2022/11/08 04:07:35;;;;;;;33.05;7.18;;;;;;;12.29;100.00;97824.69;5021082;28;20098;-62
2022/11/08 04:10:04;;;;;;;31.40;7.22;;;;;;;11.62;100.00;97823.63;5020676;28;20029;-63
2022/11/08 04:15:17;;;;;;;29.73;6.63;;;;;;;11.82;100.00;97825.25;5021188;28;20044;-61
2022/11/08 04:23:15;;;;;;;25.83;6.55;;;;;;;12.18;100.00;97821.78;5021491;28;20501;-62
2022/11/08 04:25:40;;;;;;;29.00;6.22;;;;;;;12.61;100.00;97820.44;5020926;28;20115;-62
2022/11/08 04:28:06;;;;;;;25.98;6.25;;;;;;;12.57;100.00;97818.03;5021509;28;20029;-62
2022/11/08 04:30:32;;;;;;;28.42;6.30;;;;;;;12.96;100.00;97825.59;5020052;28;20037;-64
2022/11/08 04:33:02;;;;;;;36.42;7.25;;;;;;;12.72;100.00;97825.13;5019583;28;20078;-61
2022/11/08 04:35:28;;;;;;;29.67;6.45;;;;;;;12.75;100.00;97822.31;5020511;28;20535;-64
2022/11/08 04:38:01;;;;;;;35.40;7.78;;;;;;;11.51;100.00;97816.31;5021091;28;20032;-63
2022/11/08 04:40:28;;;;;;;30.70;7.10;;;;;;;11.22;100.00;97809.84;5019828;28;20041;-62
2022/11/08 04:42:53;;;;;;;33.05;7.10;;;;;;;11.52;100.00;97802.31;5020028;28;20509;-62
2022/11/08 04:45:19;;;;;;;27.65;6.00;;;;;;;12.34;100.00;97801.78;5020014;28;20569;-61
2022/11/08 04:47:45;;;;;;;27.38;6.07;;;;;;;12.50;100.00;97807.91;5021352;28;20021;-61
2022/11/08 04:50:11;;;;;;;35.67;6.95;;;;;;;13.16;100.00;97800.94;5018616;28;20087;-63
2022/11/08 04:52:36;;;;;;;29.35;6.38;;;;;;;12.79;100.00;97812.53;5020046;28;20025;-62
2022/11/08 04:55:01;;;;;;;37.67;7.15;;;;;;;12.47;100.00;97805.44;5020632;28;20084;-63
2022/11/08 04:57:27;;;;;;;28.08;6.13;;;;;;;11.49;100.00;97797.25;5020776;28;20988;-63
2022/11/08 04:59:52;;;;;;;45.45;7.68;;;;;;;11.55;100.00;97796.94;5019469;28;20407;-62
2022/11/08 05:02:17;;;;;;;44.45;7.88;;;;;;;12.13;100.00;97794.09;5019633;28;20033;-63
2022/11/08 05:04:43;;;;;;;28.63;6.22;;;;;;;12.93;100.00;97803.00;5020998;28;20032;-60
2022/11/08 05:07:08;;;;;;;27.58;6.32;;;;;;;11.94;100.00;97799.38;5019798;28;20029;-61
2022/11/08 05:09:33;;;;;;;31.98;6.45;;;;;;;12.91;100.00;97799.63;5019759;28;20033;-60
2022/11/08 05:11:59;;;;;;;31.50;7.30;;;;;;;10.96;100.00;97785.78;5019233;28;20037;-63
2022/11/08 05:14:24;;;;;;;33.15;6.13;;;;;;;12.30;100.00;97784.56;5019751;28;20125;-63
2022/11/08 05:16:49;;;;;;;28.52;5.57;;;;;;;13.11;100.00;97795.09;5019845;28;20041;-60
2022/11/08 05:23:22;;;;;;;24.77;6.00;;;;;;;12.50;100.00;97797.44;5020362;28;20382;-60
2022/11/08 05:24:44;;;;;;;27.98;6.22;;;;;;;11.87;100.00;97776.22;5020573;28;20060;-64
2022/11/08 05:27:09;;;;;;;24.23;5.97;;;;;;;11.91;100.00;97778.66;5018778;28;20676;-63
2022/11/08 05:29:34;;;;;;;32.67;7.10;;;;;;;11.18;100.00;97772.59;5019683;28;20568;-62
2022/11/08 05:32:00;;;;;;;29.60;6.20;;;;;;;11.55;100.00;97776.03;5019226;28;20656;-62
2022/11/08 05:34:25;;;;;;;30.77;6.47;;;;;;;12.04;100.00;97778.88;5019580;28;20104;-61
2022/11/08 05:36:50;;;;;;;31.48;6.63;;;;;;;12.61;100.00;97778.56;5019586;28;20175;-62
2022/11/08 05:39:16;;;;;;;29.63;6.20;;;;;;;12.27;100.00;97776.84;5020072;28;20025;-64
2022/11/08 05:41:41;;;;;;;33.75;6.68;;;;;;;12.97;100.00;97769.66;5018404;28;20072;-62
2022/11/08 05:44:08;;;;;;;27.48;5.85;;;;;;;13.32;100.00;97779.16;5018992;28;20026;-62
2022/11/08 05:46:34;;;;;;;30.67;6.18;;;;;;;13.36;100.00;97778.06;5019518;28;20045;-63
2022/11/08 05:48:59;;;;;;;32.35;6.13;;;;;;;13.59;100.00;97780.22;5019026;28;20018;-62
2022/11/08 05:51:25;;;;;;;32.47;6.18;;;;;;;13.72;100.00;97787.41;5018176;28;20040;-65
2022/11/08 05:53:50;;;;;;;33.70;6.95;;;;;;;13.29;100.00;97775.75;5015842;28;20013;-62
2022/11/08 05:56:16;;;;;;;23.88;5.95;;;;;;;12.78;100.00;97774.22;5018688;28;20041;-61
2022/11/08 05:58:42;;;;;;;28.23;6.47;;;;;;;12.29;100.00;97770.63;5019353;28;20060;-62
2022/11/08 06:01:13;;;;;;;30.23;6.88;;;;;;;11.40;100.00;97761.13;5017851;28;20044;-61
2022/11/08 06:03:39;;;;;;;25.98;5.95;;;;;;;12.83;100.00;97772.16;5017978;28;20036;-63
2022/11/08 06:06:24;;;;;;;38.35;7.70;;;;;;;12.60;100.00;97773.41;5018594;28;20033;-63
2022/11/08 06:08:50;;;;;;;26.05;5.80;;;;;;;12.66;100.00;97765.22;5018788;28;20064;-63
2022/11/08 06:11:21;;;;;;;27.90;6.20;;;;;;;12.88;100.00;97765.78;5017878;28;20045;-59
2022/11/08 06:13:46;;;;;;;23.05;5.45;;;;;;;13.22;100.00;97766.56;5018840;28;20115;-60
2022/11/08 06:16:14;;;;;;;63.42;15.75;;;;;;;13.16;100.00;97753.81;5018466;28;20037;-60
2022/11/08 06:18:40;;;;;;;41.08;10.73;;;;;;;12.44;100.00;97765.53;5018994;28;20032;-61
2022/11/08 06:21:09;;;;;;;58.00;12.65;;;;;;;13.66;100.00;97758.00;5016835;28;20037;-64
2022/11/08 06:23:35;;;;;;;45.47;10.13;;;;;;;13.40;100.00;97767.34;5018938;28;20226;-64
2022/11/08 06:26:01;;;;;;;39.78;10.15;;;;;;;13.59;100.00;97761.88;5018311;28;20041;-62
2022/11/08 06:28:27;;;;;;;35.63;9.00;;;;;;;13.53;100.00;97767.50;5018760;28;20033;-63
2022/11/08 06:30:53;;;;;;;32.05;8.05;;;;;;;13.67;100.00;97770.19;5016758;28;20084;-61
2022/11/08 06:33:19;;;;;;;42.42;9.40;;;;;;;13.89;100.00;97768.91;5017455;28;20095;-62
2022/11/08 06:35:45;;;;;;;35.45;8.35;;;;;;;13.56;100.00;97776.94;5018312;28;20038;-62
2022/11/08 06:38:10;;;;;;;27.33;7.38;;;;;;;13.76;100.00;97779.25;5018859;28;20041;-62
2022/11/08 06:40:37;;;;;;;33.47;7.82;;;;;;;12.45;100.00;97775.91;5016342;28;20091;-61
2022/11/08 06:43:02;;;;;;;30.55;7.75;;;;;;;12.34;100.00;97780.84;5018167;28;20032;-61
2022/11/08 06:45:27;;;;;;;45.03;8.77;;;;;;;12.23;100.00;97783.19;5017798;28;20045;-61
2022/11/08 06:47:57;;;;;;;25.27;7.78;;;;;;;12.12;100.00;97784.56;5017602;28;20053;-62
2022/11/08 06:50:23;;;;;;;34.70;7.50;;;;;;;11.84;100.00;97776.41;5017177;28;20032;-62
2022/11/08 06:52:57;;;;;;;27.63;7.63;;;;;;;12.64;100.00;97785.41;5018607;28;20026;-61
2022/11/08 06:55:23;;;;;;;32.50;8.15;;;;;;;12.95;100.00;97786.38;5017245;28;20021;-62
2022/11/08 06:57:48;;;;;;;32.45;8.13;;;;;;;12.22;100.00;97791.94;5018512;28;20025;-61
2022/11/08 07:00:14;;;;;;;34.28;8.95;;;;;;;12.23;100.00;97783.19;5017374;28;20863;-61
2022/11/08 07:02:40;;;;;;;42.20;10.45;;;;;;;13.08;100.00;97792.63;5017362;28;20529;-62
2022/11/08 07:05:05;;;;;;;77.00;10.93;;;;;;;12.85;100.00;97786.06;5018113;28;20129;-62
2022/11/08 07:07:30;;;;;;;457.75;30.25;;;;;;;13.58;100.00;97789.03;5017766;28;20034;-63
2022/11/08 07:09:56;;;;;;;839.10;44.03;;;;;;;14.99;100.00;97781.59;5017517;28;20415;-61
2022/11/08 07:12:21;;;;;;;72.95;11.48;;;;;;;15.23;100.00;97784.47;5017334;28;20037;-64
2022/11/08 07:14:46;;;;;;;1999.90;196.20;;;;;;;16.55;100.00;97785.47;5018111;28;20017;-64
2022/11/08 07:17:12;;;;;;;82.82;11.13;;;;;;;17.68;100.00;97771.31;5017866;28;20351;-63
2022/11/08 07:19:37;;;;;;;32.67;8.75;;;;;;;18.36;100.00;97774.22;5017958;28;20043;-61
2022/11/08 07:22:02;;;;;;;32.22;8.55;;;;;;;18.58;100.00;97786.59;5017514;28;20211;-63
2022/11/08 07:24:28;;;;;;;24.88;7.53;;;;;;;18.03;100.00;97786.34;5017829;28;20728;-61
2022/11/08 07:26:53;;;;;;;35.70;8.93;;;;;;;18.12;100.00;97790.09;5017040;28;20478;-61
2022/11/08 07:29:18;;;;;;;27.42;7.72;;;;;;;18.43;100.00;97790.41;5018383;28;20037;-64
2022/11/08 07:31:44;;;;;;;26.50;7.90;;;;;;;18.59;100.00;97787.44;5016463;28;20427;-64
2022/11/08 07:34:09;;;;;;;34.45;8.05;;;;;;;18.38;100.00;97779.34;5017461;28;20095;-63
2022/11/08 07:36:34;;;;;;;35.08;8.48;;;;;;;18.10;96.85;97781.44;5017698;28;20041;-62
2022/11/08 07:39:00;;;;;;;32.30;7.70;;;;;;;18.63;93.44;97783.59;5017719;28;20030;-62
2022/11/08 07:41:25;;;;;;;33.92;8.10;;;;;;;17.20;94.18;97786.25;5016745;28;20411;-61
2022/11/08 07:43:51;;;;;;;29.55;7.50;;;;;;;17.18;97.21;97785.53;5018026;28;20367;-63
2022/11/08 07:46:16;;;;;;;34.47;8.43;;;;;;;16.84;99.19;97785.28;5017516;28;20037;-64
2022/11/08 07:48:41;;;;;;;28.40;7.68;;;;;;;16.37;99.26;97772.59;5018212;28;20041;-64
2022/11/08 07:51:07;;;;;;;24.90;7.70;;;;;;;17.76;98.44;97772.56;5016771;28;20032;-61
2022/11/08 07:53:32;;;;;;;30.65;7.47;;;;;;;17.02;100.00;97784.00;5017680;28;20083;-62
2022/11/08 07:55:57;;;;;;;25.85;6.65;;;;;;;17.47;100.00;97786.91;5017874;28;20848;-62
2022/11/08 07:58:23;;;;;;;28.50;7.47;;;;;;;18.19;100.00;97787.84;5018190;28;20606;-61
2022/11/08 08:00:49;;;;;;;27.77;7.57;;;;;;;15.89;100.00;97787.28;5016743;28;20037;-61
2022/11/08 08:03:14;;;;;;;20.92;6.43;;;;;;;16.36;100.00;97785.91;5017224;28;20033;-62
2022/11/08 08:05:42;;;;;;;27.98;7.30;;;;;;;16.17;100.00;97781.88;5016867;28;20058;-63
2022/11/08 08:08:09;;;;;;;28.15;7.20;;;;;;;15.97;100.00;97785.84;5017960;28;20025;-62
2022/11/08 08:10:35;;;;;;;30.60;7.38;;;;;;;15.75;100.00;97785.53;5016512;28;20030;-64
2022/11/08 08:13:01;;;;;;;26.38;6.97;;;;;;;17.10;100.00;97792.19;5017548;28;20025;-62
2022/11/08 08:15:26;;;;;;;24.42;6.40;;;;;;;17.86;100.00;97790.22;5017209;28;20247;-61
2022/11/08 08:17:52;;;;;;;28.98;7.25;;;;;;;16.35;100.00;97790.28;5018130;28;20147;-62
2022/11/08 08:20:18;;;;;;;20.40;6.13;;;;;;;16.64;100.00;97789.28;5016712;28;20041;-61
2022/11/08 08:22:48;;;;;;;31.50;7.80;;;;;;;16.26;100.00;97779.56;5016967;28;20139;-62
2022/11/08 08:25:14;;;;;;;31.70;7.05;;;;;;;17.73;100.00;97784.16;5017435;28;20737;-61
2022/11/08 08:27:44;;;;;;;28.52;7.43;;;;;;;16.94;100.00;97786.31;5020562;28;20189;-61
2022/11/08 08:30:10;;;;;;;25.23;7.20;;;;;;;17.41;100.00;97783.88;5020130;28;20457;-61
2022/11/08 08:32:35;;;;;;;24.67;6.75;;;;;;;17.46;100.00;97782.59;5019285;28;20116;-62
2022/11/08 08:35:01;;;;;;;26.67;7.65;;;;;;;17.11;100.00;97780.69;5021153;28;20017;-62
2022/11/08 08:37:26;;;;;;;24.77;7.40;;;;;;;18.02;100.00;97775.91;5020462;28;20289;-62
2022/11/08 08:39:51;;;;;;;38.20;7.78;;;;;;;18.29;100.00;97781.75;5019656;28;20556;-63
2022/11/08 08:42:16;;;;;;;32.63;7.72;;;;;;;18.09;100.00;97780.63;5020011;28;20037;-64
2022/11/08 08:44:42;;;;;;;24.20;6.05;;;;;;;19.95;100.00;97788.13;5021301;28;20060;-65
2022/11/08 08:47:07;;;;;;;26.23;6.80;;;;;;;19.17;94.30;97787.34;5019952;28;20042;-61
2022/11/08 08:49:32;;;;;;;19.80;6.20;;;;;;;18.96;95.54;97787.25;5020979;28;20403;-62
2022/11/08 08:51:58;;;;;;;30.88;7.65;;;;;;;17.73;100.00;97787.63;5018889;28;20033;-61
2022/11/08 08:54:23;;;;;;;21.40;5.93;;;;;;;19.12;100.00;97781.59;5020398;28;20048;-62
2022/11/08 08:56:48;;;;;;;23.50;5.78;;;;;;;19.72;93.32;97787.34;5020084;28;20045;-62
2022/11/08 08:59:14;;;;;;;24.50;6.07;;;;;;;19.62;86.02;97774.03;5020828;28;20025;-62
2022/11/08 09:01:39;;;;;;;24.73;5.38;;;;;;;19.61;85.00;97774.97;5018617;28;20044;-64
2022/11/08 09:04:05;;;;;;;25.15;5.82;;;;;;;18.59;82.22;97777.72;5020105;28;20025;-63
2022/11/08 09:06:30;;;;;;;20.77;5.30;;;;;;;18.62;84.22;97772.19;5019860;28;20037;-62
2022/11/08 09:08:56;;;;;;;21.58;5.53;;;;;;;19.23;82.10;97781.56;5020022;28;20025;-61
2022/11/08 09:11:21;;;;;;;26.75;5.70;;;;;;;18.57;82.49;97773.50;5019170;28;20673;-61
2022/11/08 09:13:46;;;;;;;22.38;5.35;;;;;;;18.97;81.60;97771.28;5019899;28;20029;-64
2022/11/08 09:16:13;;;;;;;17.73;5.03;;;;;;;19.28;80.55;97782.06;5017347;28;20037;-61
2022/11/08 09:18:39;;;;;;;20.27;5.05;;;;;;;18.76;82.41;97768.47;5020242;28;20040;-63
2022/11/08 09:21:05;;;;;;;19.67;5.07;;;;;;;19.56;79.73;97766.59;5018848;28;20614;-62
2022/11/08 09:23:31;;;;;;;28.80;6.07;;;;;;;19.32;78.81;97770.25;5019274;28;20132;-62
2022/11/08 09:26:01;;;;;;;21.85;4.80;;;;;;;18.41;80.04;97774.66;5018850;28;20530;-64
2022/11/08 09:28:29;;;;;;;23.73;5.25;;;;;;;19.23;78.41;97763.06;5019649;28;20033;-61
2022/11/08 09:30:55;;;;;;;20.98;5.00;;;;;;;19.81;75.87;97766.31;5018924;28;20119;-62
2022/11/08 09:33:20;;;;;;;19.92;4.65;;;;;;;19.82;75.23;97762.66;5019622;28;20037;-62
2022/11/08 09:35:46;;;;;;;17.67;4.63;;;;;;;19.73;77.40;97757.31;5019352;28;20586;-64
2022/11/08 09:38:11;;;;;;;19.08;5.05;;;;;;;19.27;76.00;97761.84;5019535;28;20022;-62
2022/11/08 09:40:52;;;;;;;23.67;5.30;;;;;;;19.45;75.31;97764.81;5018675;28;20829;-65
2022/11/08 09:43:45;;;;;;;19.95;4.70;;;;;;;19.69;73.00;97772.56;5019531;28;20152;-61
2022/11/08 09:46:31;;;;;;;17.63;4.35;;;;;;;20.90;69.09;97764.19;5019696;28;20045;-65
2022/11/08 09:49:00;;;;;;;25.85;5.25;;;;;;;20.60;69.32;97768.53;5019134;28;20509;-63
2022/11/08 09:51:27;;;;;;;24.00;4.70;;;;;;;20.13;70.69;97770.72;5018559;28;20042;-61
2022/11/08 09:53:56;;;;;;;23.40;4.53;;;;;;;21.49;67.96;97780.31;5018890;28;20029;-62
2022/11/08 09:56:29;;;;;;;21.50;4.78;;;;;;;20.72;68.23;97779.03;5019391;28;20129;-61
2022/11/08 09:58:54;;;;;;;25.58;5.30;;;;;;;19.82;68.89;97775.06;5019279;28;20033;-63
2022/11/08 10:01:21;;;;;;;17.95;4.45;;;;;;;20.17;69.42;97758.88;5018403;28;20552;-62
2022/11/08 10:03:52;;;;;;;20.20;4.60;;;;;;;19.25;71.70;97747.91;5018833;28;20029;-64
2022/11/08 10:06:36;;;;;;;17.00;4.22;;;;;;;20.45;72.16;97761.00;5019029;28;20048;-61
2022/11/08 10:09:04;;;;;;;26.52;5.28;;;;;;;19.01;70.55;97751.56;5018405;28;20033;-61
2022/11/08 10:12:10;;;;;;;23.20;5.03;;;;;;;19.74;69.18;97762.47;5018003;28;20033;-65
2022/11/08 10:14:57;;;;;;;24.48;5.20;;;;;;;19.83;68.16;97769.66;4976555;28;20030;-62
2022/11/08 10:17:44;;;;;;;22.42;4.60;;;;;;;19.54;69.28;97760.59;4994731;28;20129;-62
2022/11/08 10:20:24;;;;;;;26.58;5.20;;;;;;;19.98;68.05;97769.34;5017737;28;20029;-61
2022/11/08 10:23:05;;;;;;;21.02;4.90;;;;;;;19.61;69.06;97764.41;5018098;28;20026;-65
2022/11/08 10:25:54;;;;;;;17.48;4.35;;;;;;;20.08;66.60;97761.47;5018370;28;20045;-62
2022/11/08 10:28:26;;;;;;;25.02;5.00;;;;;;;20.55;66.32;97764.56;5018678;28;20024;-62
2022/11/08 10:30:54;;;;;;;23.60;4.82;;;;;;;20.48;66.03;97753.63;5017777;28;20561;-61
2022/11/08 10:33:28;;;;;;;21.88;4.75;;;;;;;19.42;66.74;97751.84;5018420;28;20112;-62
2022/11/08 10:36:10;;;;;;;20.65;4.30;;;;;;;20.15;65.94;97750.22;5018280;28;20040;-64
2022/11/08 10:38:49;;;;;;;18.65;4.10;;;;;;;20.26;66.36;97745.84;5018479;28;20035;-61
2022/11/08 10:41:14;;;;;;;17.30;3.97;;;;;;;20.83;64.12;97743.66;5017684;28;20044;-65
2022/11/08 10:44:05;;;;;;;20.10;4.10;;;;;;;21.12;63.83;97741.09;5017187;28;20393;-61
2022/11/08 10:46:36;;;;;;;27.15;5.05;;;;;;;22.10;60.58;97740.19;5014831;28;20064;-62
2022/11/08 10:49:11;;;;;;;17.17;3.88;;;;;;;20.84;62.77;97735.53;5017850;28;20175;-62
2022/11/08 10:51:37;;;;;;;26.08;4.97;;;;;;;21.05;62.56;97732.84;5017177;28;20568;-62
2022/11/08 10:54:02;;;;;;;22.27;4.25;;;;;;;20.91;64.12;97739.34;5018189;28;20033;-62
2022/11/08 10:56:28;;;;;;;15.75;3.97;;;;;;;21.21;61.82;97737.63;5017900;28;20460;-62
2022/11/08 10:58:53;;;;;;;18.52;4.05;;;;;;;21.05;61.20;97745.28;5017719;28;20037;-63
2022/11/08 11:01:21;;;;;;;22.02;4.30;;;;;;;20.58;63.15;97741.25;5017927;28;20044;-62
2022/11/08 11:03:48;;;;;;;22.88;4.35;;;;;;;20.87;62.20;97743.25;5017089;28;20036;-62
2022/11/08 11:06:26;;;;;;;17.80;4.10;;;;;;;20.57;64.66;97736.94;5018280;28;20037;-62
2022/11/08 11:08:56;;;;;;;19.83;4.05;;;;;;;20.88;61.67;97734.34;5017791;28;20027;-62
2022/11/08 11:11:24;;;;;;;18.40;4.13;;;;;;;21.30;61.37;97731.50;5017085;28;20033;-62
2022/11/08 11:14:16;;;;;;;24.17;4.53;;;;;;;20.62;61.47;97723.31;5017322;28;20041;-61
2022/11/08 11:16:53;;;;;;;22.13;3.97;;;;;;;21.27;61.89;97701.78;5017681;28;20037;-62
2022/11/08 11:19:19;;;;;;;19.73;3.95;;;;;;;21.43;59.66;97701.22;5018281;28;20029;-62
2022/11/08 11:22:06;;;;;;;22.52;4.25;;;;;;;21.86;58.63;97692.03;5016641;28;20052;-64
2022/11/08 11:24:45;;;;;;;21.25;3.88;;;;;;;22.86;64.56;97701.25;5013788;28;20029;-62
2022/11/08 11:27:40;;;;;;;17.30;3.92;;;;;;;22.12;63.07;97711.69;5018213;28;20060;-62
2022/11/08 11:30:34;;;;;;;21.10;3.95;;;;;;;21.67;58.91;97703.47;5003405;28;20041;-63
2022/11/08 11:33:23;;;;;;;22.95;4.28;;;;;;;20.95;60.49;97698.34;5017332;28;20025;-62
2022/11/08 11:35:53;;;;;;;16.95;3.72;;;;;;;21.65;63.56;97701.00;5017254;28;20048;-65
2022/11/08 11:38:33;;;;;;;20.90;3.72;;;;;;;20.73;60.99;97701.19;5017960;28;20056;-62
2022/11/08 11:41:05;;;;;;;20.45;4.10;;;;;;;20.92;60.68;97692.50;5015685;28;20683;-61
2022/11/08 11:44:02;;;;;;;14.88;3.63;;;;;;;21.08;60.42;97692.81;5017304;28;20856;-62